首页
METAR-TAF:

METAR-TAF

机场 :

恩贾梅纳国际机场

恩賈梅納, 乍得

纬度: 12-08N, 经度: 015-02E, 海拔: 295米

当前天气观测

该预报发布于1小时和14分钟前的13:00 UTC
风速13节,风向南转南东
温度 30°C
湿度 52%
气压 1008 hPa
能見度: 8000
散云层高于4000英尺
少量云层高于5000英尺, 积雨云.

METAR: FTTJ 191300Z 15013KT 8000 SCT040 FEW050CB 30/19 Q1008 TEMPO TSRA

时间: 15:14 (14:14 UTC)

预报

该预报发布于2小时和54分钟前的11:20 UTC
预报有效从19日的 12点(UTC)到 20日的 18点(UTC)
风速14节,风向
能見度: 6000
少量云层高于3000英尺
少量云层高于5000英尺, 积雨云.
短暂存在
从 19日的 12点(UTC)到 19日的 22点(UTC)
风速15节,风向多变,有时为35节阵风
能見度: 3000
雷暴, 雨
几率 30% :
短暂存在
从 20日的 10点(UTC)到 20日的 18点(UTC)
雷暴, 雨

TAF: FTTJ 191120Z 1912/2018 18014KT 6000 FEW030 FEW050CB TEMPO 1912/1922 VRB15G35KT 3000 TSRA PROB30 TEMPO 2010/2018 TSRA

超过4000个机场的气象观测和天气预报(METAR&TAF报告)。

可查询的气象台以黄色和红色小点在地图上表示。

将鼠标移到小点上方,可查看气象台名称。

然后点击查看天气观测和预报。

如需切换地图:点击带黑十字的绿色按钮放大地图;点击带横线的绿色按钮缩小地图;或者点击绿色箭头查看邻近地区的地图。


METAR-TAF: